Anduril — DOLD — position and weather

sailwx.info

Track history (hours):
 
Tides and Currents Weather Stations Pressure Air Temp Water Temp Dewpoint Dewpoint Depression Visibility Wind Speed Wind Dir Waves Ship Positions

Anduril

Last reported at 2017-Sep-18 10:17 UTC. Time now 2017-Nov-23 18:45 UTC.
Position N 37°42' E 023°52'.
Warning: this ship's position is months out of date.

Length 12 m.

Type: Sailing vessel. MMSI: 211323730.

Date/timePositionNaut miles runAvg speedWind from/ knotsBaromVisibWave heightAir tempDewpointWater temp
2017-Sep-18 10:17N 37°42' E 023°52'2 5.7
2017-Sep-18 09:55N 37°43' E 023°50'2 5.3
2017-Sep-18 09:29N 37°44' E 023°47'1 3.0
2017-Sep-18 09:00N 37°45' E 023°46'2 3.3
2017-Sep-18 08:30N 37°46' E 023°44'2 3.7
2017-Sep-18 08:00N 37°46' E 023°42'2 4.0
2017-Sep-18 07:30N 37°45' E 023°39'2 4.5
2017-Sep-18 07:00N 37°46' E 023°36'3 5.0
2017-Sep-18 06:29N 37°47' E 023°34'2 4.3
2017-Sep-18 06:00N 37°47' E 023°31'2 4.1
2017-Sep-18 05:30N 37°47' E 023°28'1 1.3
2017-Sep-18 04:55N 37°46' E 023°28'0 0.0
2017-Sep-18 04:29N 37°46' E 023°28'0 0.0
2017-Sep-18 03:59N 37°46' E 023°28'0 0.0
2017-Sep-18 03:26N 37°46' E 023°28'0 0.0
2017-Sep-18 02:59N 37°46' E 023°28'0 0.0
2017-Sep-18 02:29N 37°46' E 023°28'0 0.0
2017-Sep-18 01:56N 37°46' E 023°28'0 0.0
2017-Sep-18 01:26N 37°46' E 023°28'0 0.0
2017-Sep-18 00:56N 37°46' E 023°28'0 0.0
2017-Sep-18 00:29N 37°46' E 023°28'0 0.0
2017-Sep-17 23:59N 37°46' E 023°28'0 0.0
2017-Sep-17 23:29N 37°46' E 023°28'0 0.0
2017-Sep-17 22:59N 37°46' E 023°28'0 0.0
2017-Sep-17 22:26N 37°46' E 023°28'0 0.0
2017-Sep-17 21:59N 37°46' E 023°28'0 0.0
2017-Sep-17 21:29N 37°46' E 023°28'0 0.0
2017-Sep-17 20:56N 37°46' E 023°28'0 0.0
2017-Sep-17 20:29N 37°46' E 023°28'0 0.0
2017-Sep-17 19:59N 37°46' E 023°28'0 0.0
2017-Sep-17 19:29N 37°46' E 023°28'0 0.0
2017-Sep-17 18:59N 37°46' E 023°28'0 0.0
2017-Sep-17 18:29N 37°46' E 023°28'0 0.0
2017-Sep-17 17:53N 37°46' E 023°28'0 0.0
2017-Sep-17 17:29N 37°46' E 023°28'0 0.0
2017-Sep-17 16:59N 37°46' E 023°28'0 0.0
2017-Sep-17 16:26N 37°46' E 023°28'0 0.0
2017-Sep-17 15:56N 37°46' E 023°28'0 0.0
2017-Sep-17 15:29N 37°46' E 023°28'0 0.1
2017-Sep-17 14:55N 37°46' E 023°28'1 3.4
2017-Sep-17 14:30N 37°47' E 023°29'3 6.3
2017-Sep-17 14:00N 37°49' E 023°32'3 6.2
2017-Sep-17 13:30N 37°52' E 023°35'3 5.8
2017-Sep-17 13:00N 37°54' E 023°37'3 5.4
2017-Sep-17 12:30N 37°56' E 023°39'0 0.3
2017-Sep-17 11:59N 37°56' E 023°39'0 0.0
2017-Sep-17 11:29N 37°56' E 023°39'0 0.0
2017-Sep-17 10:59N 37°56' E 023°39'0 0.0
2017-Sep-17 10:26N 37°56' E 023°39'0 0.0
2017-Sep-17 09:59N 37°56' E 023°39'0 0.0
2017-Sep-17 09:26N 37°56' E 023°39'0 0.0
2017-Sep-17 08:59N 37°56' E 023°39'0 0.0
2017-Sep-17 08:29N 37°56' E 023°39'0 0.0
2017-Sep-17 07:59N 37°56' E 023°39'0 0.0
2017-Sep-17 07:29N 37°56' E 023°39'0 0.0
2017-Sep-17 06:59N 37°56' E 023°39'0 0.0
2017-Sep-17 06:29N 37°56' E 023°39'0 0.0
2017-Sep-17 05:59N 37°56' E 023°39'0 0.0
2017-Sep-17 05:29N 37°56' E 023°39'0 0.0
2017-Sep-17 05:00N 37°56' E 023°39'0 0.0
2017-Sep-17 04:28N 37°56' E 023°39'0 0.0
2017-Sep-17 03:58N 37°56' E 023°39'0 0.0
2017-Sep-17 03:28N 37°56' E 023°39'0 0.0
2017-Sep-17 02:55N 37°56' E 023°39'0 0.0
2017-Sep-17 02:28N 37°56' E 023°39'0 0.0
2017-Sep-17 01:55N 37°56' E 023°39'0 0.0
2017-Sep-17 01:28N 37°56' E 023°39'0 0.0
2017-Sep-17 00:58N 37°56' E 023°39'0 0.0
2017-Sep-17 00:28N 37°56' E 023°39'0 0.0
2017-Sep-16 23:58N 37°56' E 023°39'0 0.0
2017-Sep-16 23:28N 37°56' E 023°39'0 0.0
2017-Sep-16 22:58N 37°56' E 023°39'0 0.0
2017-Sep-16 22:29N 37°56' E 023°39'0 0.0
2017-Sep-16 21:59N 37°56' E 023°39'0 0.0
2017-Sep-16 21:29N 37°56' E 023°39'0 0.0
2017-Sep-16 20:59N 37°56' E 023°39'0 0.0
2017-Sep-16 20:26N 37°56' E 023°39'0 0.0
2017-Sep-16 19:59N 37°56' E 023°39'0 0.0
2017-Sep-16 19:29N 37°56' E 023°39'0 0.0
2017-Sep-16 18:59N 37°56' E 023°39'0 0.0
2017-Sep-16 18:29N 37°56' E 023°39'0 0.0
2017-Sep-16 17:59N 37°56' E 023°39'0 0.0
2017-Sep-16 17:29N 37°56' E 023°39'0 0.0
2017-Sep-16 16:58N 37°56' E 023°39'0 0.0
2017-Sep-16 16:28N 37°56' E 023°39'0 0.0
2017-Sep-16 15:49N 37°56' E 023°39'0 0.0
2017-Sep-16 15:28N 37°56' E 023°39'0 0.0
2017-Sep-16 14:58N 37°56' E 023°39'0 0.0
2017-Sep-16 14:31N 37°56' E 023°39'0 0.0
2017-Sep-16 13:58N 37°56' E 023°39'0 0.0
2017-Sep-16 13:27N 37°56' E 023°39'0 0.0
2017-Sep-16 12:57N 37°56' E 023°39'0 0.0
2017-Sep-16 12:28N 37°56' E 023°39'0 0.0
2017-Sep-16 11:58N 37°56' E 023°39'0 0.0
2017-Sep-16 11:28N 37°56' E 023°39'0 0.0
2017-Sep-16 10:58N 37°56' E 023°39'0 0.0
2017-Sep-16 10:25N 37°56' E 023°39'0 0.0
2017-Sep-16 10:00N 37°56' E 023°39'0 0.0
2017-Sep-16 09:30N 37°56' E 023°39'0 0.0
2017-Sep-16 08:59N 37°56' E 023°39'0 0.0
2017-Sep-16 08:29N 37°56' E 023°39'0 0.0
2017-Sep-16 07:59N 37°56' E 023°39'0 0.0
2017-Sep-16 07:29N 37°56' E 023°39'0 0.0
2017-Sep-16 06:59N 37°56' E 023°39'0 0.0
2017-Sep-16 06:29N 37°56' E 023°39'0 0.0
2017-Sep-16 06:00N 37°56' E 023°39'0 0.0
2017-Sep-16 05:27N 37°56' E 023°39'0 0.0
2017-Sep-16 05:00N 37°56' E 023°39'0 0.0
2017-Sep-16 04:30N 37°56' E 023°39'0 0.0
2017-Sep-16 04:00N 37°56' E 023°39'0 0.0
2017-Sep-16 03:30N 37°56' E 023°39'0 0.0
2017-Sep-16 03:00N 37°56' E 023°39'0 0.0
2017-Sep-16 02:30N 37°56' E 023°39'0 0.0
2017-Sep-16 02:00N 37°56' E 023°39'0 0.0
2017-Sep-16 01:30N 37°56' E 023°39'0 0.0
2017-Sep-16 01:00N 37°56' E 023°39'0 0.0
2017-Sep-16 00:29N 37°56' E 023°39'0 0.0
2017-Sep-15 23:59N 37°56' E 023°39'0 0.0
2017-Sep-15 23:28N 37°56' E 023°39'0 0.0
2017-Sep-15 22:58N 37°56' E 023°39'0 0.0
2017-Sep-15 22:28N 37°56' E 023°39'0 0.0
2017-Sep-15 21:58N 37°56' E 023°39'0 0.0
2017-Sep-15 21:25N 37°56' E 023°39'0 0.0
2017-Sep-15 20:58N 37°56' E 023°39'0 0.0
2017-Sep-15 20:28N 37°56' E 023°39'0 0.0
2017-Sep-15 19:59N 37°56' E 023°39'0 0.0
2017-Sep-15 19:29N 37°56' E 023°39'0 0.0
2017-Sep-15 18:59N 37°56' E 023°39'0 0.0
2017-Sep-15 18:29N 37°56' E 023°39'0 0.0
2017-Sep-15 17:56N 37°56' E 023°39'0 0.0
2017-Sep-15 17:29N 37°56' E 023°39'0 0.0
2017-Sep-15 17:00N 37°56' E 023°39'0 0.0
2017-Sep-15 16:28N 37°56' E 023°39'0 0.0
2017-Sep-15 15:58N 37°56' E 023°39'0 0.0
2017-Sep-15 15:28N 37°56' E 023°39'0 0.0
2017-Sep-15 14:55N 37°56' E 023°39'0 0.0
2017-Sep-15 14:28N 37°56' E 023°39'0 0.0
2017-Sep-15 13:58N 37°56' E 023°39'0 1.0
2017-Sep-15 13:30N 37°56' E 023°39'3 6.4
2017-Sep-15 13:00N 37°53' E 023°37'3 6.5
2017-Sep-15 12:30N 37°50' E 023°35'3 6.1
2017-Sep-15 12:00N 37°47' E 023°34'3 6.1
2017-Sep-15 11:28N 37°44' E 023°33'3 6.5
2017-Sep-15 11:00N 37°41' E 023°31'5 6.0
2017-Sep-15 10:09N 37°37' E 023°28'1 4.6
2017-Sep-15 10:00N 37°36' E 023°28'2 4.2
2017-Sep-15 09:30N 37°34' E 023°26'5 0.2
2017-Sep-14 07:58N 37°39' E 023°23'3 6.2
2017-Sep-14 07:30N 37°38' E 023°20'1 2.6
2017-Sep-14 07:00N 37°38' E 023°18'4 4.5
2017-Sep-14 06:09N 37°38' E 023°13'5 0.2
2017-Sep-13 09:28N 37°42' E 023°17'3 6.0
2017-Sep-13 08:54N 37°44' E 023°20'3 6.2
2017-Sep-13 08:27N 37°45' E 023°23'2 0.0
2017-Sep-11 11:56N 37°44' E 023°26'5 4.8
2017-Sep-11 10:52N 37°40' E 023°29'1 3.3
2017-Sep-11 10:30N 37°40' E 023°31'2 3.5
2017-Sep-11 10:00N 37°40' E 023°33'2 4.4
2017-Sep-11 09:30N 37°40' E 023°36'3 6.7
2017-Sep-11 09:00N 37°39' E 023°40'  
Track history (hours):
 
Tides and Currents Weather Stations Pressure Air Temp Water Temp Dewpoint Dewpoint Depression Visibility Wind Speed Wind Dir Waves Ship Positions

Anduril

Last reported at 2017-Sep-18 10:17 UTC. Time now 2017-Nov-23 18:45 UTC.
Position N 37°42' E 023°52'.
Warning: this ship's position is months out of date.

Length 12 m.

Type: Sailing vessel. MMSI: 211323730.

Date/timePositionNaut miles runAvg speedWind from/ knotsBaromVisibWave heightAir tempDewpointWater temp
2017-Sep-18 10:17N 37°42' E 023°52'2 5.7
2017-Sep-18 09:55N 37°43' E 023°50'2 5.3
2017-Sep-18 09:29N 37°44' E 023°47'1 3.0
2017-Sep-18 09:00N 37°45' E 023°46'2 3.3
2017-Sep-18 08:30N 37°46' E 023°44'2 3.7
2017-Sep-18 08:00N 37°46' E 023°42'2 4.0
2017-Sep-18 07:30N 37°45' E 023°39'2 4.5
2017-Sep-18 07:00N 37°46' E 023°36'3 5.0
2017-Sep-18 06:29N 37°47' E 023°34'2 4.3
2017-Sep-18 06:00N 37°47' E 023°31'2 4.1
2017-Sep-18 05:30N 37°47' E 023°28'1 1.3
2017-Sep-18 04:55N 37°46' E 023°28'0 0.0
2017-Sep-18 04:29N 37°46' E 023°28'0 0.0
2017-Sep-18 03:59N 37°46' E 023°28'0 0.0
2017-Sep-18 03:26N 37°46' E 023°28'0 0.0
2017-Sep-18 02:59N 37°46' E 023°28'0 0.0
2017-Sep-18 02:29N 37°46' E 023°28'0 0.0
2017-Sep-18 01:56N 37°46' E 023°28'0 0.0
2017-Sep-18 01:26N 37°46' E 023°28'0 0.0
2017-Sep-18 00:56N 37°46' E 023°28'0 0.0
2017-Sep-18 00:29N 37°46' E 023°28'0 0.0
2017-Sep-17 23:59N 37°46' E 023°28'0 0.0
2017-Sep-17 23:29N 37°46' E 023°28'0 0.0
2017-Sep-17 22:59N 37°46' E 023°28'0 0.0
2017-Sep-17 22:26N 37°46' E 023°28'0 0.0
2017-Sep-17 21:59N 37°46' E 023°28'0 0.0
2017-Sep-17 21:29N 37°46' E 023°28'0 0.0
2017-Sep-17 20:56N 37°46' E 023°28'0 0.0
2017-Sep-17 20:29N 37°46' E 023°28'0 0.0
2017-Sep-17 19:59N 37°46' E 023°28'0 0.0
2017-Sep-17 19:29N 37°46' E 023°28'0 0.0
2017-Sep-17 18:59N 37°46' E 023°28'0 0.0
2017-Sep-17 18:29N 37°46' E 023°28'0 0.0
2017-Sep-17 17:53N 37°46' E 023°28'0 0.0
2017-Sep-17 17:29N 37°46' E 023°28'0 0.0
2017-Sep-17 16:59N 37°46' E 023°28'0 0.0
2017-Sep-17 16:26N 37°46' E 023°28'0 0.0
2017-Sep-17 15:56N 37°46' E 023°28'0 0.0
2017-Sep-17 15:29N 37°46' E 023°28'0 0.1
2017-Sep-17 14:55N 37°46' E 023°28'1 3.4
2017-Sep-17 14:30N 37°47' E 023°29'3 6.3
2017-Sep-17 14:00N 37°49' E 023°32'3 6.2
2017-Sep-17 13:30N 37°52' E 023°35'3 5.8
2017-Sep-17 13:00N 37°54' E 023°37'3 5.4
2017-Sep-17 12:30N 37°56' E 023°39'0 0.3
2017-Sep-17 11:59N 37°56' E 023°39'0 0.0
2017-Sep-17 11:29N 37°56' E 023°39'0 0.0
2017-Sep-17 10:59N 37°56' E 023°39'0 0.0
2017-Sep-17 10:26N 37°56' E 023°39'0 0.0
2017-Sep-17 09:59N 37°56' E 023°39'0 0.0
2017-Sep-17 09:26N 37°56' E 023°39'0 0.0
2017-Sep-17 08:59N 37°56' E 023°39'0 0.0
2017-Sep-17 08:29N 37°56' E 023°39'0 0.0
2017-Sep-17 07:59N 37°56' E 023°39'0 0.0
2017-Sep-17 07:29N 37°56' E 023°39'0 0.0
2017-Sep-17 06:59N 37°56' E 023°39'0 0.0
2017-Sep-17 06:29N 37°56' E 023°39'0 0.0
2017-Sep-17 05:59N 37°56' E 023°39'0 0.0
2017-Sep-17 05:29N 37°56' E 023°39'0 0.0
2017-Sep-17 05:00N 37°56' E 023°39'0 0.0
2017-Sep-17 04:28N 37°56' E 023°39'0 0.0
2017-Sep-17 03:58N 37°56' E 023°39'0 0.0
2017-Sep-17 03:28N 37°56' E 023°39'0 0.0
2017-Sep-17 02:55N 37°56' E 023°39'0 0.0
2017-Sep-17 02:28N 37°56' E 023°39'0 0.0
2017-Sep-17 01:55N 37°56' E 023°39'0 0.0
2017-Sep-17 01:28N 37°56' E 023°39'0 0.0
2017-Sep-17 00:58N 37°56' E 023°39'0 0.0
2017-Sep-17 00:28N 37°56' E 023°39'0 0.0
2017-Sep-16 23:58N 37°56' E 023°39'0 0.0
2017-Sep-16 23:28N 37°56' E 023°39'0 0.0
2017-Sep-16 22:58N 37°56' E 023°39'0 0.0
2017-Sep-16 22:29N 37°56' E 023°39'0 0.0
2017-Sep-16 21:59N 37°56' E 023°39'0 0.0
2017-Sep-16 21:29N 37°56' E 023°39'0 0.0
2017-Sep-16 20:59N 37°56' E 023°39'0 0.0
2017-Sep-16 20:26N 37°56' E 023°39'0 0.0
2017-Sep-16 19:59N 37°56' E 023°39'0 0.0
2017-Sep-16 19:29N 37°56' E 023°39'0 0.0
2017-Sep-16 18:59N 37°56' E 023°39'0 0.0
2017-Sep-16 18:29N 37°56' E 023°39'0 0.0
2017-Sep-16 17:59N 37°56' E 023°39'0 0.0
2017-Sep-16 17:29N 37°56' E 023°39'0 0.0
2017-Sep-16 16:58N 37°56' E 023°39'0 0.0
2017-Sep-16 16:28N 37°56' E 023°39'0 0.0
2017-Sep-16 15:49N 37°56' E 023°39'0 0.0
2017-Sep-16 15:28N 37°56' E 023°39'0 0.0
2017-Sep-16 14:58N 37°56' E 023°39'0 0.0
2017-Sep-16 14:31N 37°56' E 023°39'0 0.0
2017-Sep-16 13:58N 37°56' E 023°39'0 0.0
2017-Sep-16 13:27N 37°56' E 023°39'0 0.0
2017-Sep-16 12:57N 37°56' E 023°39'0 0.0
2017-Sep-16 12:28N 37°56' E 023°39'0 0.0
2017-Sep-16 11:58N 37°56' E 023°39'0 0.0
2017-Sep-16 11:28N 37°56' E 023°39'0 0.0
2017-Sep-16 10:58N 37°56' E 023°39'0 0.0
2017-Sep-16 10:25N 37°56' E 023°39'0 0.0
2017-Sep-16 10:00N 37°56' E 023°39'0 0.0
2017-Sep-16 09:30N 37°56' E 023°39'0 0.0
2017-Sep-16 08:59N 37°56' E 023°39'0 0.0
2017-Sep-16 08:29N 37°56' E 023°39'0 0.0
2017-Sep-16 07:59N 37°56' E 023°39'0 0.0
2017-Sep-16 07:29N 37°56' E 023°39'0 0.0
2017-Sep-16 06:59N 37°56' E 023°39'0 0.0
2017-Sep-16 06:29N 37°56' E 023°39'0 0.0
2017-Sep-16 06:00N 37°56' E 023°39'0 0.0
2017-Sep-16 05:27N 37°56' E 023°39'0 0.0
2017-Sep-16 05:00N 37°56' E 023°39'0 0.0
2017-Sep-16 04:30N 37°56' E 023°39'0 0.0
2017-Sep-16 04:00N 37°56' E 023°39'0 0.0
2017-Sep-16 03:30N 37°56' E 023°39'0 0.0
2017-Sep-16 03:00N 37°56' E 023°39'0 0.0
2017-Sep-16 02:30N 37°56' E 023°39'0 0.0
2017-Sep-16 02:00N 37°56' E 023°39'0 0.0
2017-Sep-16 01:30N 37°56' E 023°39'0 0.0
2017-Sep-16 01:00N 37°56' E 023°39'0 0.0
2017-Sep-16 00:29N 37°56' E 023°39'0 0.0
2017-Sep-15 23:59N 37°56' E 023°39'0 0.0
2017-Sep-15 23:28N 37°56' E 023°39'0 0.0
2017-Sep-15 22:58N 37°56' E 023°39'0 0.0
2017-Sep-15 22:28N 37°56' E 023°39'0 0.0
2017-Sep-15 21:58N 37°56' E 023°39'0 0.0
2017-Sep-15 21:25N 37°56' E 023°39'0 0.0
2017-Sep-15 20:58N 37°56' E 023°39'0 0.0
2017-Sep-15 20:28N 37°56' E 023°39'0 0.0
2017-Sep-15 19:59N 37°56' E 023°39'0 0.0
2017-Sep-15 19:29N 37°56' E 023°39'0 0.0
2017-Sep-15 18:59N 37°56' E 023°39'0 0.0
2017-Sep-15 18:29N 37°56' E 023°39'0 0.0
2017-Sep-15 17:56N 37°56' E 023°39'0 0.0
2017-Sep-15 17:29N 37°56' E 023°39'0 0.0
2017-Sep-15 17:00N 37°56' E 023°39'0 0.0
2017-Sep-15 16:28N 37°56' E 023°39'0 0.0
2017-Sep-15 15:58N 37°56' E 023°39'0 0.0
2017-Sep-15 15:28N 37°56' E 023°39'0 0.0
2017-Sep-15 14:55N 37°56' E 023°39'0 0.0
2017-Sep-15 14:28N 37°56' E 023°39'0 0.0
2017-Sep-15 13:58N 37°56' E 023°39'0 1.0
2017-Sep-15 13:30N 37°56' E 023°39'3 6.4
2017-Sep-15 13:00N 37°53' E 023°37'3 6.5
2017-Sep-15 12:30N 37°50' E 023°35'3 6.1
2017-Sep-15 12:00N 37°47' E 023°34'3 6.1
2017-Sep-15 11:28N 37°44' E 023°33'3 6.5
2017-Sep-15 11:00N 37°41' E 023°31'5 6.0
2017-Sep-15 10:09N 37°37' E 023°28'1 4.6
2017-Sep-15 10:00N 37°36' E 023°28'2 4.2
2017-Sep-15 09:30N 37°34' E 023°26'5 0.2
2017-Sep-14 07:58N 37°39' E 023°23'3 6.2
2017-Sep-14 07:30N 37°38' E 023°20'1 2.6
2017-Sep-14 07:00N 37°38' E 023°18'4 4.5
2017-Sep-14 06:09N 37°38' E 023°13'5 0.2
2017-Sep-13 09:28N 37°42' E 023°17'3 6.0
2017-Sep-13 08:54N 37°44' E 023°20'3 6.2
2017-Sep-13 08:27N 37°45' E 023°23'2 0.0
2017-Sep-11 11:56N 37°44' E 023°26'5 4.8
2017-Sep-11 10:52N 37°40' E 023°29'1 3.3
2017-Sep-11 10:30N 37°40' E 023°31'2 3.5
2017-Sep-11 10:00N 37°40' E 023°33'2 4.4
2017-Sep-11 09:30N 37°40' E 023°36'3 6.7
2017-Sep-11 09:00N 37°39' E 023°40'  

Dump ship's entire track history